sensor_id;sensor_type;location;lat;lon;timestamp;P1;durP1;ratioP1;P2;durP2;ratioP2
18732;SDS011;9495;51.210;2.934;2023-04-01T00:00:38;0.20;;;0.20;;
18732;SDS011;9495;51.210;2.934;2023-04-01T00:03:07;0.00;;;0.00;;
18732;SDS011;9495;51.210;2.934;2023-04-01T00:05:37;0.00;;;0.00;;
18732;SDS011;9495;51.210;2.934;2023-04-01T00:08:05;0.13;;;0.13;;
18732;SDS011;9495;51.210;2.934;2023-04-01T00:10:37;0.40;;;0.40;;
18732;SDS011;9495;51.210;2.934;2023-04-01T00:13:05;0.00;;;0.00;;
18732;SDS011;9495;51.210;2.934;2023-04-01T00:15:35;0.00;;;0.00;;
18732;SDS011;9495;51.210;2.934;2023-04-01T00:18:04;0.10;;;0.10;;
18732;SDS011;9495;51.210;2.934;2023-04-01T00:20:32;0.00;;;0.00;;
18732;SDS011;9495;51.210;2.934;2023-04-01T00:23:03;0.00;;;0.00;;
18732;SDS011;9495;51.210;2.934;2023-04-01T00:25:32;0.10;;;0.10;;
18732;SDS011;9495;51.210;2.934;2023-04-01T00:28:01;0.00;;;0.00;;
18732;SDS011;9495;51.210;2.934;2023-04-01T00:30:29;0.00;;;0.00;;
18732;SDS011;9495;51.210;2.934;2023-04-01T00:32:58;0.00;;;0.00;;
18732;SDS011;9495;51.210;2.934;2023-04-01T00:35:26;3.00;;;0.93;;
18732;SDS011;9495;51.210;2.934;2023-04-01T00:37:55;0.10;;;0.10;;
18732;SDS011;9495;51.210;2.934;2023-04-01T00:40:26;0.10;;;0.10;;
18732;SDS011;9495;51.210;2.934;2023-04-01T00:42:56;0.00;;;0.00;;
18732;SDS011;9495;51.210;2.934;2023-04-01T00:45:26;0.00;;;0.00;;
18732;SDS011;9495;51.210;2.934;2023-04-01T00:47:58;0.97;;;0.67;;
18732;SDS011;9495;51.210;2.934;2023-04-01T00:50:31;1.13;;;0.73;;
18732;SDS011;9495;51.210;2.934;2023-04-01T00:53:02;0.20;;;0.10;;
18732;SDS011;9495;51.210;2.934;2023-04-01T00:55:33;0.10;;;0.10;;
18732;SDS011;9495;51.210;2.934;2023-04-01T00:58:05;0.10;;;0.10;;
18732;SDS011;9495;51.210;2.934;2023-04-01T01:00:38;0.10;;;0.10;;
18732;SDS011;9495;51.210;2.934;2023-04-01T01:03:07;0.30;;;0.30;;
18732;SDS011;9495;51.210;2.934;2023-04-01T01:05:38;0.00;;;0.00;;
18732;SDS011;9495;51.210;2.934;2023-04-01T01:08:29;0.20;;;0.20;;
18732;SDS011;9495;51.210;2.934;2023-04-01T01:11:06;0.00;;;0.00;;
18732;SDS011;9495;51.210;2.934;2023-04-01T01:13:40;0.10;;;0.10;;
18732;SDS011;9495;51.210;2.934;2023-04-01T01:16:14;0.00;;;0.00;;
18732;SDS011;9495;51.210;2.934;2023-04-01T01:18:49;0.00;;;0.00;;
18732;SDS011;9495;51.210;2.934;2023-04-01T01:24:29;0.53;;;0.30;;
18732;SDS011;9495;51.210;2.934;2023-04-01T01:27:09;0.00;;;0.00;;
18732;SDS011;9495;51.210;2.934;2023-04-01T01:29:43;0.23;;;0.23;;
18732;SDS011;9495;51.210;2.934;2023-04-01T01:35:28;0.30;;;0.30;;
18732;SDS011;9495;51.210;2.934;2023-04-01T01:38:00;3.03;;;0.83;;
18732;SDS011;9495;51.210;2.934;2023-04-01T01:40:31;0.10;;;0.10;;
18732;SDS011;9495;51.210;2.934;2023-04-01T01:43:04;0.00;;;0.00;;
18732;SDS011;9495;51.210;2.934;2023-04-01T01:45:36;14.10;;;3.23;;
18732;SDS011;9495;51.210;2.934;2023-04-01T01:48:10;15.00;;;3.20;;
18732;SDS011;9495;51.210;2.934;2023-04-01T01:50:41;18.73;;;4.17;;
18732;SDS011;9495;51.210;2.934;2023-04-01T01:53:12;21.27;;;4.17;;
18732;SDS011;9495;51.210;2.934;2023-04-01T01:55:41;13.13;;;4.37;;
18732;SDS011;9495;51.210;2.934;2023-04-01T01:58:12;16.60;;;3.47;;
18732;SDS011;9495;51.210;2.934;2023-04-01T02:00:45;24.53;;;5.10;;
18732;SDS011;9495;51.210;2.934;2023-04-01T02:03:17;23.93;;;4.33;;
18732;SDS011;9495;51.210;2.934;2023-04-01T02:05:51;16.47;;;4.50;;
18732;SDS011;9495;51.210;2.934;2023-04-01T02:08:23;17.60;;;4.70;;
18732;SDS011;9495;51.210;2.934;2023-04-01T02:10:56;13.53;;;4.80;;
18732;SDS011;9495;51.210;2.934;2023-04-01T02:13:28;22.13;;;4.73;;
18732;SDS011;9495;51.210;2.934;2023-04-01T02:16:02;18.70;;;5.07;;
18732;SDS011;9495;51.210;2.934;2023-04-01T02:18:36;18.37;;;5.57;;
18732;SDS011;9495;51.210;2.934;2023-04-01T02:21:06;23.53;;;5.93;;
18732;SDS011;9495;51.210;2.934;2023-04-01T02:23:36;17.90;;;4.87;;
18732;SDS011;9495;51.210;2.934;2023-04-01T02:26:06;22.40;;;4.67;;
18732;SDS011;9495;51.210;2.934;2023-04-01T02:28:35;16.43;;;4.93;;
18732;SDS011;9495;51.210;2.934;2023-04-01T02:31:07;24.80;;;5.60;;
18732;SDS011;9495;51.210;2.934;2023-04-01T02:33:36;18.50;;;4.80;;
18732;SDS011;9495;51.210;2.934;2023-04-01T02:36:08;20.50;;;5.47;;
18732;SDS011;9495;51.210;2.934;2023-04-01T02:38:39;17.60;;;5.97;;
18732;SDS011;9495;51.210;2.934;2023-04-01T02:41:09;23.93;;;5.23;;
18732;SDS011;9495;51.210;2.934;2023-04-01T02:43:38;24.50;;;5.83;;
18732;SDS011;9495;51.210;2.934;2023-04-01T02:46:06;18.33;;;5.00;;
18732;SDS011;9495;51.210;2.934;2023-04-01T02:48:35;14.17;;;4.73;;
18732;SDS011;9495;51.210;2.934;2023-04-01T02:51:03;23.57;;;5.10;;
18732;SDS011;9495;51.210;2.934;2023-04-01T02:53:33;22.80;;;6.10;;
18732;SDS011;9495;51.210;2.934;2023-04-01T02:56:01;17.10;;;5.10;;
18732;SDS011;9495;51.210;2.934;2023-04-01T02:58:30;11.57;;;4.80;;
18732;SDS011;9495;51.210;2.934;2023-04-01T03:00:59;22.30;;;6.73;;
18732;SDS011;9495;51.210;2.934;2023-04-01T03:03:27;26.83;;;7.23;;
18732;SDS011;9495;51.210;2.934;2023-04-01T03:05:56;25.97;;;6.70;;
18732;SDS011;9495;51.210;2.934;2023-04-01T03:08:26;29.13;;;6.67;;
18732;SDS011;9495;51.210;2.934;2023-04-01T03:10:56;25.73;;;6.30;;
18732;SDS011;9495;51.210;2.934;2023-04-01T03:13:26;29.57;;;6.13;;
18732;SDS011;9495;51.210;2.934;2023-04-01T03:15:54;20.93;;;6.20;;
18732;SDS011;9495;51.210;2.934;2023-04-01T03:18:23;30.57;;;6.50;;
18732;SDS011;9495;51.210;2.934;2023-04-01T03:20:52;18.77;;;4.90;;
18732;SDS011;9495;51.210;2.934;2023-04-01T03:23:20;24.77;;;6.23;;
18732;SDS011;9495;51.210;2.934;2023-04-01T03:25:50;24.30;;;6.37;;
18732;SDS011;9495;51.210;2.934;2023-04-01T03:28:20;25.83;;;6.63;;
18732;SDS011;9495;51.210;2.934;2023-04-01T03:30:48;22.00;;;5.60;;
18732;SDS011;9495;51.210;2.934;2023-04-01T03:33:17;22.73;;;6.33;;
18732;SDS011;9495;51.210;2.934;2023-04-01T03:35:45;25.60;;;5.73;;
18732;SDS011;9495;51.210;2.934;2023-04-01T03:38:14;23.90;;;6.10;;
18732;SDS011;9495;51.210;2.934;2023-04-01T03:40:43;23.23;;;6.13;;
18732;SDS011;9495;51.210;2.934;2023-04-01T03:43:12;18.87;;;5.03;;
18732;SDS011;9495;51.210;2.934;2023-04-01T03:45:44;19.47;;;5.50;;
18732;SDS011;9495;51.210;2.934;2023-04-01T03:48:13;19.30;;;6.23;;
18732;SDS011;9495;51.210;2.934;2023-04-01T03:50:42;27.73;;;5.67;;
18732;SDS011;9495;51.210;2.934;2023-04-01T03:53:13;21.93;;;5.53;;
18732;SDS011;9495;51.210;2.934;2023-04-01T03:55:42;23.23;;;6.10;;
18732;SDS011;9495;51.210;2.934;2023-04-01T03:58:10;23.30;;;5.87;;
18732;SDS011;9495;51.210;2.934;2023-04-01T04:00:39;19.13;;;6.00;;
18732;SDS011;9495;51.210;2.934;2023-04-01T04:03:09;17.03;;;5.10;;
18732;SDS011;9495;51.210;2.934;2023-04-01T04:05:37;18.17;;;5.30;;
18732;SDS011;9495;51.210;2.934;2023-04-01T04:08:13;16.47;;;4.60;;
18732;SDS011;9495;51.210;2.934;2023-04-01T04:10:41;18.67;;;5.53;;
18732;SDS011;9495;51.210;2.934;2023-04-01T04:13:10;19.87;;;5.03;;
18732;SDS011;9495;51.210;2.934;2023-04-01T04:15:38;16.70;;;5.37;;
18732;SDS011;9495;51.210;2.934;2023-04-01T04:18:08;14.80;;;4.80;;
18732;SDS011;9495;51.210;2.934;2023-04-01T04:20:37;14.50;;;4.53;;
18732;SDS011;9495;51.210;2.934;2023-04-01T04:23:12;13.87;;;3.90;;
18732;SDS011;9495;51.210;2.934;2023-04-01T04:25:40;21.50;;;4.80;;
18732;SDS011;9495;51.210;2.934;2023-04-01T04:28:09;18.10;;;5.20;;
18732;SDS011;9495;51.210;2.934;2023-04-01T04:30:37;18.07;;;4.67;;
18732;SDS011;9495;51.210;2.934;2023-04-01T04:33:06;17.40;;;4.70;;
18732;SDS011;9495;51.210;2.934;2023-04-01T04:35:36;13.57;;;4.50;;
18732;SDS011;9495;51.210;2.934;2023-04-01T04:38:04;19.53;;;5.40;;
18732;SDS011;9495;51.210;2.934;2023-04-01T04:40:33;20.17;;;5.40;;
18732;SDS011;9495;51.210;2.934;2023-04-01T04:43:03;18.27;;;4.53;;
18732;SDS011;9495;51.210;2.934;2023-04-01T04:45:32;20.40;;;4.23;;
18732;SDS011;9495;51.210;2.934;2023-04-01T04:48:01;22.10;;;5.07;;
18732;SDS011;9495;51.210;2.934;2023-04-01T04:50:29;16.77;;;4.83;;
18732;SDS011;9495;51.210;2.934;2023-04-01T04:52:59;14.57;;;3.70;;
18732;SDS011;9495;51.210;2.934;2023-04-01T04:55:27;20.50;;;4.37;;
18732;SDS011;9495;51.210;2.934;2023-04-01T04:57:56;20.17;;;4.50;;
18732;SDS011;9495;51.210;2.934;2023-04-01T05:00:25;20.87;;;4.27;;
18732;SDS011;9495;51.210;2.934;2023-04-01T05:02:53;22.97;;;5.33;;
18732;SDS011;9495;51.210;2.934;2023-04-01T05:05:22;12.33;;;4.97;;
18732;SDS011;9495;51.210;2.934;2023-04-01T05:07:51;22.70;;;4.47;;
18732;SDS011;9495;51.210;2.934;2023-04-01T05:10:21;16.87;;;4.60;;
18732;SDS011;9495;51.210;2.934;2023-04-01T05:12:49;18.83;;;4.30;;
18732;SDS011;9495;51.210;2.934;2023-04-01T05:15:18;14.70;;;4.37;;
18732;SDS011;9495;51.210;2.934;2023-04-01T05:17:46;8.47;;;3.30;;
18732;SDS011;9495;51.210;2.934;2023-04-01T05:20:15;22.87;;;5.03;;
18732;SDS011;9495;51.210;2.934;2023-04-01T05:22:44;14.97;;;4.03;;
18732;SDS011;9495;51.210;2.934;2023-04-01T05:25:12;10.57;;;4.23;;
18732;SDS011;9495;51.210;2.934;2023-04-01T05:27:42;16.40;;;4.13;;
18732;SDS011;9495;51.210;2.934;2023-04-01T05:30:11;14.83;;;3.47;;
18732;SDS011;9495;51.210;2.934;2023-04-01T05:32:40;15.00;;;3.07;;
18732;SDS011;9495;51.210;2.934;2023-04-01T05:35:09;12.57;;;3.50;;
18732;SDS011;9495;51.210;2.934;2023-04-01T05:37:38;14.47;;;3.07;;
18732;SDS011;9495;51.210;2.934;2023-04-01T05:40:07;0.30;;;0.30;;
18732;SDS011;9495;51.210;2.934;2023-04-01T05:42:36;0.00;;;0.00;;
18732;SDS011;9495;51.210;2.934;2023-04-01T05:45:07;0.00;;;0.00;;
18732;SDS011;9495;51.210;2.934;2023-04-01T05:47:36;0.10;;;0.10;;
18732;SDS011;9495;51.210;2.934;2023-04-01T05:50:05;0.07;;;0.07;;
18732;SDS011;9495;51.210;2.934;2023-04-01T05:52:34;0.27;;;0.27;;
18732;SDS011;9495;51.210;2.934;2023-04-01T05:55:02;0.00;;;0.00;;
18732;SDS011;9495;51.210;2.934;2023-04-01T05:57:31;0.00;;;0.00;;
18732;SDS011;9495;51.210;2.934;2023-04-01T06:00:00;0.00;;;0.00;;
18732;SDS011;9495;51.210;2.934;2023-04-01T06:02:31;0.00;;;0.00;;
18732;SDS011;9495;51.210;2.934;2023-04-01T06:05:02;0.00;;;0.00;;
18732;SDS011;9495;51.210;2.934;2023-04-01T06:07:38;0.00;;;0.00;;
18732;SDS011;9495;51.210;2.934;2023-04-01T06:10:10;0.00;;;0.00;;
18732;SDS011;9495;51.210;2.934;2023-04-01T06:12:45;0.00;;;0.00;;
18732;SDS011;9495;51.210;2.934;2023-04-01T06:15:34;0.00;;;0.00;;
18732;SDS011;9495;51.210;2.934;2023-04-01T06:21:14;0.47;;;0.10;;
18732;SDS011;9495;51.210;2.934;2023-04-01T06:24:05;0.00;;;0.00;;
18732;SDS011;9495;51.210;2.934;2023-04-01T06:26:42;0.00;;;0.00;;
18732;SDS011;9495;51.210;2.934;2023-04-01T06:35:21;0.00;;;0.00;;
18732;SDS011;9495;51.210;2.934;2023-04-01T06:38:13;0.00;;;0.00;;
18732;SDS011;9495;51.210;2.934;2023-04-01T06:41:04;0.00;;;0.00;;
18732;SDS011;9495;51.210;2.934;2023-04-01T06:43:50;0.30;;;0.30;;
18732;SDS011;9495;51.210;2.934;2023-04-01T06:46:29;6.77;;;0.43;;
18732;SDS011;9495;51.210;2.934;2023-04-01T06:49:07;0.00;;;0.00;;
18732;SDS011;9495;51.210;2.934;2023-04-01T06:51:50;0.00;;;0.00;;
18732;SDS011;9495;51.210;2.934;2023-04-01T06:54:28;0.00;;;0.00;;
18732;SDS011;9495;51.210;2.934;2023-04-01T06:57:00;0.00;;;0.00;;
18732;SDS011;9495;51.210;2.934;2023-04-01T06:59:33;0.00;;;0.00;;
18732;SDS011;9495;51.210;2.934;2023-04-01T07:02:05;0.10;;;0.10;;
18732;SDS011;9495;51.210;2.934;2023-04-01T07:04:43;0.00;;;0.00;;
18732;SDS011;9495;51.210;2.934;2023-04-01T07:07:16;0.00;;;0.00;;
18732;SDS011;9495;51.210;2.934;2023-04-01T07:09:54;0.00;;;0.00;;
18732;SDS011;9495;51.210;2.934;2023-04-01T07:12:28;0.00;;;0.00;;
18732;SDS011;9495;51.210;2.934;2023-04-01T07:15:06;0.00;;;0.00;;
18732;SDS011;9495;51.210;2.934;2023-04-01T07:17:44;0.30;;;0.30;;
18732;SDS011;9495;51.210;2.934;2023-04-01T07:20:17;0.00;;;0.00;;
18732;SDS011;9495;51.210;2.934;2023-04-01T07:22:50;0.00;;;0.00;;
18732;SDS011;9495;51.210;2.934;2023-04-01T07:25:24;0.30;;;0.20;;
18732;SDS011;9495;51.210;2.934;2023-04-01T07:27:56;0.00;;;0.00;;
18732;SDS011;9495;51.210;2.934;2023-04-01T07:30:30;0.00;;;0.00;;
18732;SDS011;9495;51.210;2.934;2023-04-01T07:33:11;0.10;;;0.10;;
18732;SDS011;9495;51.210;2.934;2023-04-01T07:35:45;0.00;;;0.00;;
18732;SDS011;9495;51.210;2.934;2023-04-01T07:38:20;0.00;;;0.00;;
18732;SDS011;9495;51.210;2.934;2023-04-01T07:40:59;0.00;;;0.00;;
18732;SDS011;9495;51.210;2.934;2023-04-01T07:43:44;0.00;;;0.00;;
18732;SDS011;9495;51.210;2.934;2023-04-01T07:46:36;0.00;;;0.00;;
18732;SDS011;9495;51.210;2.934;2023-04-01T07:49:15;0.17;;;0.17;;
18732;SDS011;9495;51.210;2.934;2023-04-01T07:51:50;1.03;;;0.67;;
18732;SDS011;9495;51.210;2.934;2023-04-01T07:54:26;0.03;;;0.03;;
18732;SDS011;9495;51.210;2.934;2023-04-01T07:57:02;0.00;;;0.00;;
18732;SDS011;9495;51.210;2.934;2023-04-01T07:59:38;0.00;;;0.00;;
18732;SDS011;9495;51.210;2.934;2023-04-01T08:02:15;0.03;;;0.03;;
18732;SDS011;9495;51.210;2.934;2023-04-01T08:04:56;0.87;;;0.20;;
18732;SDS011;9495;51.210;2.934;2023-04-01T08:07:34;0.00;;;0.00;;
18732;SDS011;9495;51.210;2.934;2023-04-01T08:10:10;0.00;;;0.00;;
18732;SDS011;9495;51.210;2.934;2023-04-01T08:12:45;0.00;;;0.00;;
18732;SDS011;9495;51.210;2.934;2023-04-01T08:15:21;0.20;;;0.20;;
18732;SDS011;9495;51.210;2.934;2023-04-01T08:17:57;0.00;;;0.00;;
18732;SDS011;9495;51.210;2.934;2023-04-01T08:20:37;0.10;;;0.10;;
18732;SDS011;9495;51.210;2.934;2023-04-01T08:23:11;0.10;;;0.10;;
18732;SDS011;9495;51.210;2.934;2023-04-01T08:25:42;0.10;;;0.10;;
18732;SDS011;9495;51.210;2.934;2023-04-01T08:28:17;0.00;;;0.00;;
18732;SDS011;9495;51.210;2.934;2023-04-01T08:30:51;0.10;;;0.10;;
18732;SDS011;9495;51.210;2.934;2023-04-01T08:33:24;0.00;;;0.00;;
18732;SDS011;9495;51.210;2.934;2023-04-01T08:35:55;0.47;;;0.23;;
18732;SDS011;9495;51.210;2.934;2023-04-01T08:38:28;0.00;;;0.00;;
18732;SDS011;9495;51.210;2.934;2023-04-01T08:44:12;0.00;;;0.00;;
18732;SDS011;9495;51.210;2.934;2023-04-01T08:47:05;0.00;;;0.00;;
18732;SDS011;9495;51.210;2.934;2023-04-01T08:52:52;9.20;;;1.07;;
18732;SDS011;9495;51.210;2.934;2023-04-01T08:55:31;0.00;;;0.00;;
18732;SDS011;9495;51.210;2.934;2023-04-01T08:58:26;0.00;;;0.00;;
18732;SDS011;9495;51.210;2.934;2023-04-01T09:01:20;0.00;;;0.00;;
18732;SDS011;9495;51.210;2.934;2023-04-01T09:04:05;0.00;;;0.00;;
18732;SDS011;9495;51.210;2.934;2023-04-01T09:06:49;0.10;;;0.10;;
18732;SDS011;9495;51.210;2.934;2023-04-01T09:09:30;0.00;;;0.00;;
18732;SDS011;9495;51.210;2.934;2023-04-01T09:12:28;0.00;;;0.00;;
18732;SDS011;9495;51.210;2.934;2023-04-01T09:21:29;0.13;;;0.10;;
18732;SDS011;9495;51.210;2.934;2023-04-01T09:27:10;0.00;;;0.00;;
18732;SDS011;9495;51.210;2.934;2023-04-01T09:30:00;0.00;;;0.00;;
18732;SDS011;9495;51.210;2.934;2023-04-01T09:36:16;0.63;;;0.33;;
18732;SDS011;9495;51.210;2.934;2023-04-01T09:39:06;0.10;;;0.10;;
18732;SDS011;9495;51.210;2.934;2023-04-01T09:41:54;0.00;;;0.00;;
18732;SDS011;9495;51.210;2.934;2023-04-01T09:44:34;0.00;;;0.00;;
18732;SDS011;9495;51.210;2.934;2023-04-01T09:47:10;0.00;;;0.00;;
18732;SDS011;9495;51.210;2.934;2023-04-01T09:49:55;0.00;;;0.00;;
18732;SDS011;9495;51.210;2.934;2023-04-01T09:52:44;0.10;;;0.10;;
18732;SDS011;9495;51.210;2.934;2023-04-01T09:55:33;0.00;;;0.00;;
18732;SDS011;9495;51.210;2.934;2023-04-01T10:01:30;0.00;;;0.00;;
18732;SDS011;9495;51.210;2.934;2023-04-01T10:07:48;0.00;;;0.00;;
18732;SDS011;9495;51.210;2.934;2023-04-01T10:13:47;0.00;;;0.00;;
18732;SDS011;9495;51.210;2.934;2023-04-01T10:16:36;0.10;;;0.10;;
18732;SDS011;9495;51.210;2.934;2023-04-01T10:25:45;0.00;;;0.00;;
18732;SDS011;9495;51.210;2.934;2023-04-01T10:32:05;0.10;;;0.10;;
18732;SDS011;9495;51.210;2.934;2023-04-01T10:38:15;0.00;;;0.00;;
18732;SDS011;9495;51.210;2.934;2023-04-01T10:41:06;0.07;;;0.07;;
18732;SDS011;9495;51.210;2.934;2023-04-01T10:47:21;0.00;;;0.00;;
18732;SDS011;9495;51.210;2.934;2023-04-01T10:53:27;0.00;;;0.00;;
18732;SDS011;9495;51.210;2.934;2023-04-01T10:59:28;0.00;;;0.00;;
18732;SDS011;9495;51.210;2.934;2023-04-01T11:17:56;0.00;;;0.00;;
18732;SDS011;9495;51.210;2.934;2023-04-01T11:24:11;0.00;;;0.00;;
18732;SDS011;9495;51.210;2.934;2023-04-01T11:26:52;0.10;;;0.10;;
18732;SDS011;9495;51.210;2.934;2023-04-01T11:29:40;0.00;;;0.00;;
18732;SDS011;9495;51.210;2.934;2023-04-01T11:32:31;0.10;;;0.10;;
18732;SDS011;9495;51.210;2.934;2023-04-01T11:35:25;0.00;;;0.00;;
18732;SDS011;9495;51.210;2.934;2023-04-01T11:38:07;0.00;;;0.00;;
18732;SDS011;9495;51.210;2.934;2023-04-01T11:40:51;0.30;;;0.30;;
18732;SDS011;9495;51.210;2.934;2023-04-01T11:43:26;0.10;;;0.10;;
18732;SDS011;9495;51.210;2.934;2023-04-01T11:46:03;0.00;;;0.00;;
18732;SDS011;9495;51.210;2.934;2023-04-01T11:48:50;0.00;;;0.00;;
18732;SDS011;9495;51.210;2.934;2023-04-01T11:54:38;2.37;;;0.80;;
18732;SDS011;9495;51.210;2.934;2023-04-01T11:57:24;0.00;;;0.00;;
18732;SDS011;9495;51.210;2.934;2023-04-01T12:00:14;0.10;;;0.10;;
18732;SDS011;9495;51.210;2.934;2023-04-01T12:02:59;0.10;;;0.10;;
18732;SDS011;9495;51.210;2.934;2023-04-01T12:05:42;0.00;;;0.00;;
18732;SDS011;9495;51.210;2.934;2023-04-01T12:08:19;0.00;;;0.00;;
18732;SDS011;9495;51.210;2.934;2023-04-01T12:10:59;0.57;;;0.50;;
18732;SDS011;9495;51.210;2.934;2023-04-01T12:13:33;0.00;;;0.00;;
18732;SDS011;9495;51.210;2.934;2023-04-01T12:16:16;0.00;;;0.00;;
18732;SDS011;9495;51.210;2.934;2023-04-01T12:18:54;0.10;;;0.10;;
18732;SDS011;9495;51.210;2.934;2023-04-01T12:21:27;0.40;;;0.30;;
18732;SDS011;9495;51.210;2.934;2023-04-01T12:27:11;0.20;;;0.20;;
18732;SDS011;9495;51.210;2.934;2023-04-01T12:32:45;0.00;;;0.00;;
18732;SDS011;9495;51.210;2.934;2023-04-01T12:35:21;0.10;;;0.10;;
18732;SDS011;9495;51.210;2.934;2023-04-01T12:40:54;0.00;;;0.00;;
18732;SDS011;9495;51.210;2.934;2023-04-01T12:47:07;0.00;;;0.00;;
18732;SDS011;9495;51.210;2.934;2023-04-01T12:50:03;0.00;;;0.00;;
18732;SDS011;9495;51.210;2.934;2023-04-01T12:52:57;0.00;;;0.00;;
18732;SDS011;9495;51.210;2.934;2023-04-01T12:55:40;0.00;;;0.00;;
18732;SDS011;9495;51.210;2.934;2023-04-01T12:58:34;0.00;;;0.00;;
18732;SDS011;9495;51.210;2.934;2023-04-01T13:01:42;0.00;;;0.00;;
18732;SDS011;9495;51.210;2.934;2023-04-01T13:04:37;0.00;;;0.00;;
18732;SDS011;9495;51.210;2.934;2023-04-01T13:07:22;0.00;;;0.00;;
18732;SDS011;9495;51.210;2.934;2023-04-01T13:10:12;0.00;;;0.00;;
18732;SDS011;9495;51.210;2.934;2023-04-01T13:12:58;0.00;;;0.00;;
18732;SDS011;9495;51.210;2.934;2023-04-01T13:15:43;0.10;;;0.10;;
18732;SDS011;9495;51.210;2.934;2023-04-01T13:18:21;0.10;;;0.10;;
18732;SDS011;9495;51.210;2.934;2023-04-01T13:21:01;0.00;;;0.00;;
18732;SDS011;9495;51.210;2.934;2023-04-01T13:23:39;0.00;;;0.00;;
18732;SDS011;9495;51.210;2.934;2023-04-01T13:26:20;0.00;;;0.00;;
18732;SDS011;9495;51.210;2.934;2023-04-01T13:28:57;0.00;;;0.00;;
18732;SDS011;9495;51.210;2.934;2023-04-01T13:31:36;0.00;;;0.00;;
18732;SDS011;9495;51.210;2.934;2023-04-01T13:34:17;0.00;;;0.00;;
18732;SDS011;9495;51.210;2.934;2023-04-01T13:36:58;0.00;;;0.00;;
18732;SDS011;9495;51.210;2.934;2023-04-01T13:39:36;0.10;;;0.10;;
18732;SDS011;9495;51.210;2.934;2023-04-01T13:42:16;0.00;;;0.00;;
18732;SDS011;9495;51.210;2.934;2023-04-01T13:44:53;0.10;;;0.10;;
18732;SDS011;9495;51.210;2.934;2023-04-01T13:50:47;0.10;;;0.10;;
18732;SDS011;9495;51.210;2.934;2023-04-01T13:53:49;0.00;;;0.00;;
18732;SDS011;9495;51.210;2.934;2023-04-01T13:56:34;0.00;;;0.00;;
18732;SDS011;9495;51.210;2.934;2023-04-01T13:59:19;0.00;;;0.00;;
18732;SDS011;9495;51.210;2.934;2023-04-01T14:02:24;8.40;;;1.87;;
18732;SDS011;9495;51.210;2.934;2023-04-01T14:05:14;20.93;;;2.70;;
18732;SDS011;9495;51.210;2.934;2023-04-01T14:08:13;10.63;;;2.37;;
18732;SDS011;9495;51.210;2.934;2023-04-01T14:10:56;14.70;;;2.90;;
18732;SDS011;9495;51.210;2.934;2023-04-01T14:13:34;12.77;;;2.90;;
18732;SDS011;9495;51.210;2.934;2023-04-01T14:16:14;13.20;;;3.20;;
18732;SDS011;9495;51.210;2.934;2023-04-01T14:19:02;5.57;;;1.90;;
18732;SDS011;9495;51.210;2.934;2023-04-01T14:21:40;12.93;;;2.70;;
18732;SDS011;9495;51.210;2.934;2023-04-01T14:24:27;18.23;;;3.13;;
18732;SDS011;9495;51.210;2.934;2023-04-01T14:30:31;16.80;;;2.70;;
18732;SDS011;9495;51.210;2.934;2023-04-01T14:33:15;15.87;;;3.43;;
18732;SDS011;9495;51.210;2.934;2023-04-01T14:35:53;20.77;;;3.70;;
18732;SDS011;9495;51.210;2.934;2023-04-01T14:38:42;18.60;;;3.77;;
18732;SDS011;9495;51.210;2.934;2023-04-01T14:41:25;19.03;;;3.23;;
18732;SDS011;9495;51.210;2.934;2023-04-01T14:44:22;17.77;;;2.80;;
18732;SDS011;9495;51.210;2.934;2023-04-01T14:47:07;15.97;;;3.50;;
18732;SDS011;9495;51.210;2.934;2023-04-01T14:49:52;19.10;;;3.47;;
18732;SDS011;9495;51.210;2.934;2023-04-01T14:52:33;22.97;;;3.87;;
18732;SDS011;9495;51.210;2.934;2023-04-01T14:55:15;20.60;;;3.70;;
18732;SDS011;9495;51.210;2.934;2023-04-01T14:57:59;15.10;;;2.97;;
18732;SDS011;9495;51.210;2.934;2023-04-01T15:00:39;19.87;;;2.80;;
18732;SDS011;9495;51.210;2.934;2023-04-01T15:03:16;17.90;;;3.23;;
18732;SDS011;9495;51.210;2.934;2023-04-01T15:05:49;15.93;;;2.80;;
18732;SDS011;9495;51.210;2.934;2023-04-01T15:08:23;9.80;;;2.63;;
18732;SDS011;9495;51.210;2.934;2023-04-01T15:10:59;18.10;;;2.77;;
18732;SDS011;9495;51.210;2.934;2023-04-01T15:16:47;21.90;;;5.30;;
18732;SDS011;9495;51.210;2.934;2023-04-01T15:19:25;14.37;;;2.03;;
18732;SDS011;9495;51.210;2.934;2023-04-01T15:22:19;16.70;;;2.93;;
18732;SDS011;9495;51.210;2.934;2023-04-01T15:25:14;17.10;;;2.70;;
18732;SDS011;9495;51.210;2.934;2023-04-01T15:27:58;21.33;;;3.77;;
18732;SDS011;9495;51.210;2.934;2023-04-01T15:30:34;15.20;;;2.70;;
18732;SDS011;9495;51.210;2.934;2023-04-01T15:33:14;0.00;;;0.00;;
18732;SDS011;9495;51.210;2.934;2023-04-01T15:35:51;0.13;;;0.13;;
18732;SDS011;9495;51.210;2.934;2023-04-01T15:38:31;15.70;;;2.47;;
18732;SDS011;9495;51.210;2.934;2023-04-01T15:41:07;16.83;;;2.83;;
18732;SDS011;9495;51.210;2.934;2023-04-01T15:43:42;11.83;;;2.07;;
18732;SDS011;9495;51.210;2.934;2023-04-01T15:46:20;17.63;;;2.87;;
18732;SDS011;9495;51.210;2.934;2023-04-01T15:49:03;11.80;;;2.30;;
18732;SDS011;9495;51.210;2.934;2023-04-01T15:51:41;12.00;;;2.10;;
18732;SDS011;9495;51.210;2.934;2023-04-01T15:54:27;19.57;;;2.90;;
18732;SDS011;9495;51.210;2.934;2023-04-01T15:57:20;19.03;;;2.80;;
18732;SDS011;9495;51.210;2.934;2023-04-01T16:00:04;15.43;;;2.87;;
18732;SDS011;9495;51.210;2.934;2023-04-01T16:02:43;25.20;;;3.87;;
18732;SDS011;9495;51.210;2.934;2023-04-01T16:05:30;22.43;;;3.43;;
18732;SDS011;9495;51.210;2.934;2023-04-01T16:11:04;12.90;;;1.77;;
18732;SDS011;9495;51.210;2.934;2023-04-01T16:13:45;19.80;;;2.53;;
18732;SDS011;9495;51.210;2.934;2023-04-01T16:16:25;10.67;;;1.97;;
18732;SDS011;9495;51.210;2.934;2023-04-01T16:19:24;16.47;;;2.50;;
18732;SDS011;9495;51.210;2.934;2023-04-01T16:22:13;12.23;;;2.63;;
18732;SDS011;9495;51.210;2.934;2023-04-01T16:24:46;12.20;;;2.60;;
18732;SDS011;9495;51.210;2.934;2023-04-01T16:27:19;14.70;;;2.63;;
18732;SDS011;9495;51.210;2.934;2023-04-01T16:29:56;17.20;;;2.60;;
18732;SDS011;9495;51.210;2.934;2023-04-01T16:32:33;12.67;;;2.67;;
18732;SDS011;9495;51.210;2.934;2023-04-01T16:38:03;13.53;;;2.37;;
18732;SDS011;9495;51.210;2.934;2023-04-01T16:40:42;12.40;;;2.00;;
18732;SDS011;9495;51.210;2.934;2023-04-01T16:43:16;15.27;;;2.73;;
18732;SDS011;9495;51.210;2.934;2023-04-01T16:45:54;16.23;;;3.17;;
18732;SDS011;9495;51.210;2.934;2023-04-01T16:48:45;14.93;;;3.00;;
18732;SDS011;9495;51.210;2.934;2023-04-01T16:51:26;12.10;;;2.70;;
18732;SDS011;9495;51.210;2.934;2023-04-01T16:54:04;15.57;;;3.10;;
18732;SDS011;9495;51.210;2.934;2023-04-01T16:56:39;15.63;;;3.03;;
18732;SDS011;9495;51.210;2.934;2023-04-01T16:59:15;10.57;;;3.13;;
18732;SDS011;9495;51.210;2.934;2023-04-01T17:01:50;16.77;;;3.40;;
18732;SDS011;9495;51.210;2.934;2023-04-01T17:04:24;20.00;;;4.20;;
18732;SDS011;9495;51.210;2.934;2023-04-01T17:07:04;22.87;;;5.27;;
18732;SDS011;9495;51.210;2.934;2023-04-01T17:09:45;22.17;;;5.27;;
18732;SDS011;9495;51.210;2.934;2023-04-01T17:12:24;18.70;;;4.53;;
18732;SDS011;9495;51.210;2.934;2023-04-01T17:15:00;6.60;;;2.03;;
18732;SDS011;9495;51.210;2.934;2023-04-01T17:17:34;0.00;;;0.00;;
18732;SDS011;9495;51.210;2.934;2023-04-01T17:20:14;0.00;;;0.00;;
18732;SDS011;9495;51.210;2.934;2023-04-01T17:23:14;0.00;;;0.00;;
18732;SDS011;9495;51.210;2.934;2023-04-01T17:26:00;0.00;;;0.00;;
18732;SDS011;9495;51.210;2.934;2023-04-01T17:28:44;0.00;;;0.00;;
18732;SDS011;9495;51.210;2.934;2023-04-01T17:31:20;0.00;;;0.00;;
18732;SDS011;9495;51.210;2.934;2023-04-01T17:37:02;18.50;;;4.47;;
18732;SDS011;9495;51.210;2.934;2023-04-01T17:39:44;19.83;;;4.33;;
18732;SDS011;9495;51.210;2.934;2023-04-01T17:42:20;25.27;;;4.70;;
18732;SDS011;9495;51.210;2.934;2023-04-01T17:44:58;20.90;;;4.67;;
18732;SDS011;9495;51.210;2.934;2023-04-01T17:47:35;18.83;;;4.07;;
18732;SDS011;9495;51.210;2.934;2023-04-01T17:50:20;12.00;;;3.57;;
18732;SDS011;9495;51.210;2.934;2023-04-01T17:53:00;23.67;;;5.30;;
18732;SDS011;9495;51.210;2.934;2023-04-01T17:55:55;19.20;;;5.40;;